Blue Springs, Alabama
Current Conditions -  °F | °C
As of 7:53 PM on Friday 19 Dec 2014 (Local Time) from KHEY Reporting Station
Overcast Overcast  
Wind Chill: 46°   Ceiling: 7000
Heat Index: 48°   Visibility: 10mi
Dew Point: 46°   Wind: 5mph
Humidity: 93%   Direction: 350°N
Pressure: 30.13"   Gusts: NA
Location:  31.6731°N, 85.5681°W
Report Text: KHEY 200153Z AUTO 35004KT 10SM BKN070 OVC100 09/08 A3013 RMK AO2 RAE43 SLP194 P0002 T00890078
Loading
Personal Weather Stations






























Interactive Weather Map New forecast layout! Learn more

10-Day Weather Forecast

Advertisements
Track Severe Weather on mobile